Time;durP1;ratioP1;P1;durP2;ratioP2;P2;SDS_P1;SDS_P2;PMS_P1;PMS_P2;Temp;Humidity;BMP_temperature;BMP_pressure;BME280_temperature;BME280_humidity;BME280_pressure;Samples;Min_cycle;Max_cycle;Signal;HPM_P1;HPM_P2
2023/09/02 00:01:06;;;;;;;0.47;0.47;;;;;14.50;96211.00;;;;5136068;27;20276;-63
2023/09/02 00:03:35;;;;;;;0.60;0.60;;;;;14.60;96207.00;;;;5135972;27;20195;-63
2023/09/02 00:06:02;;;;;;;1.20;0.77;;;;;14.70;96214.00;;;;5135862;27;20293;-63
2023/09/02 00:08:29;;;;;;;0.70;0.70;;;;;14.70;96219.00;;;;5135947;27;20194;-63
2023/09/02 00:10:59;;;;;;;0.53;0.53;;;;;14.70;96221.00;;;;5136137;27;20632;-63
2023/09/02 00:13:28;;;;;;;0.50;0.50;;;;;14.70;96211.00;;;;5134395;27;20217;-63
2023/09/02 00:15:55;;;;;;;0.50;0.50;;;;;14.70;96217.00;;;;5135677;27;20196;-63
2023/09/02 00:18:22;;;;;;;0.70;0.70;;;;;14.70;96210.00;;;;5135708;27;20221;-63
2023/09/02 00:20:50;;;;;;;0.57;0.57;;;;;14.40;96216.00;;;;5135957;27;20198;-63
2023/09/02 00:23:17;;;;;;;0.60;0.60;;;;;14.20;96210.00;;;;5135653;27;20209;-63
2023/09/02 00:25:45;;;;;;;0.83;0.83;;;;;14.20;96219.00;;;;5134197;27;20254;-63
2023/09/02 00:28:12;;;;;;;1.10;1.07;;;;;14.20;96219.00;;;;5135524;27;20527;-63
2023/09/02 00:30:41;;;;;;;0.60;0.60;;;;;14.10;96219.00;;;;5135736;27;20197;-63
2023/09/02 00:33:08;;;;;;;6.10;5.63;;;;;14.10;96217.00;;;;5135376;27;20558;-63
2023/09/02 00:35:35;;;;;;;3.33;3.03;;;;;14.10;96219.00;;;;5135425;27;20671;-63
2023/09/02 00:38:03;;;;;;;1.63;1.53;;;;;14.20;96214.00;;;;5135216;27;20593;-63
2023/09/02 00:40:31;;;;;;;0.93;0.93;;;;;14.30;96218.00;;;;5135743;27;20197;-63
2023/09/02 00:43:03;;;;;;;0.50;0.50;;;;;14.30;96207.00;;;;5135478;27;20184;-63
2023/09/02 00:45:30;;;;;;;0.40;0.40;;;;;14.30;96212.00;;;;5135443;27;20216;-63
2023/09/02 00:48:01;;;;;;;0.70;0.70;;;;;14.40;96204.00;;;;5135114;27;20205;-63
2023/09/02 00:50:28;;;;;;;0.90;0.83;;;;;14.30;96218.00;;;;5135160;27;20645;-63
2023/09/02 00:52:56;;;;;;;0.60;0.60;;;;;14.20;96215.00;;;;5135034;27;20200;-63
2023/09/02 00:55:23;;;;;;;0.77;0.77;;;;;14.10;96218.00;;;;5135186;27;20217;-63
2023/09/02 00:57:50;;;;;;;0.80;0.80;;;;;14.20;96211.00;;;;5134915;27;20577;-63
2023/09/02 01:00:18;;;;;;;0.57;0.57;;;;;14.20;96213.00;;;;5135224;27;20535;-63
2023/09/02 01:02:47;;;;;;;7.53;1.47;;;;;14.10;96209.00;;;;5135612;27;20189;-62
2023/09/02 01:05:17;;;;;;;1.10;1.10;;;;;14.00;96220.00;;;;5134708;27;20259;-62
2023/09/02 01:07:46;;;;;;;0.70;0.70;;;;;13.80;96220.00;;;;5134805;27;20572;-62
2023/09/02 01:10:13;;;;;;;0.90;0.90;;;;;13.90;96219.00;;;;5134710;27;20186;-62
2023/09/02 01:12:41;;;;;;;1.10;1.10;;;;;14.00;96231.00;;;;5134731;27;20253;-62
2023/09/02 01:15:09;;;;;;;0.87;0.87;;;;;14.10;96182.00;;;;5134522;27;20221;-62
2023/09/02 01:17:36;;;;;;;0.60;0.60;;;;;14.00;96229.00;;;;5134432;27;20551;-62
2023/09/02 01:20:06;;;;;;;0.70;0.70;;;;;14.10;96219.00;;;;5134817;27;20254;-62
2023/09/02 01:22:58;;;;;;;0.70;0.70;;;;;14.10;96217.00;;;;5134848;27;20193;-62
2023/09/02 01:25:45;;;;;;;0.60;0.60;;;;;14.10;96219.00;;;;5134456;27;20189;-62
2023/09/02 01:28:19;;;;;;;0.70;0.70;;;;;14.10;96219.00;;;;5134430;27;20178;-62
2023/09/02 01:30:49;;;;;;;1.13;1.03;;;;;14.10;96220.00;;;;5134751;27;20606;-62
2023/09/02 01:33:19;;;;;;;0.77;0.77;;;;;14.10;96230.00;;;;5134352;27;20185;-62
2023/09/02 01:35:47;;;;;;;0.70;0.70;;;;;14.00;96229.00;;;;5134178;27;20208;-62
2023/09/02 01:38:16;;;;;;;1.37;1.07;;;;;13.90;96218.00;;;;5134171;27;20182;-62
2023/09/02 01:40:44;;;;;;;0.60;0.60;;;;;13.90;96227.00;;;;5134071;27;20181;-62
2023/09/02 01:43:17;;;;;;;0.70;0.70;;;;;13.90;96215.00;;;;5134072;27;20201;-62
2023/09/02 01:45:46;;;;;;;0.80;0.80;;;;;13.80;96228.00;;;;5134054;27;20617;-63
2023/09/02 01:48:15;;;;;;;1.10;1.10;;;;;13.90;96227.00;;;;5134533;27;20186;-63
2023/09/02 01:50:44;;;;;;;2.37;1.03;;;;;13.90;96221.00;;;;5134325;27;20192;-63
2023/09/02 01:53:12;;;;;;;0.80;0.80;;;;;14.00;96223.00;;;;5134010;27;20564;-62
2023/09/02 01:55:39;;;;;;;0.60;0.60;;;;;13.80;96219.00;;;;5133987;27;20262;-62
2023/09/02 01:58:07;;;;;;;0.50;0.50;;;;;13.70;96234.00;;;;5132850;27;20539;-62
2023/09/02 02:00:36;;;;;;;0.50;0.50;;;;;13.60;96237.00;;;;5134620;27;20204;-62
2023/09/02 02:03:04;;;;;;;0.53;0.53;;;;;13.60;96234.00;;;;5133926;28;20189;-63
2023/09/02 02:05:37;;;;;;;0.70;0.70;;;;;13.60;96234.00;;;;5134016;28;20659;-63
2023/09/02 02:08:12;;;;;;;0.70;0.70;;;;;13.60;96234.00;;;;5133915;28;20592;-62
2023/09/02 02:10:42;;;;;;;1.30;1.27;;;;;13.50;96234.00;;;;5134085;28;20230;-62
2023/09/02 02:13:10;;;;;;;0.77;0.77;;;;;13.50;96236.00;;;;5134724;28;20628;-62
2023/09/02 02:15:38;;;;;;;0.87;0.87;;;;;13.60;96239.00;;;;5133814;28;20680;-62
2023/09/02 02:18:06;;;;;;;0.80;0.80;;;;;13.60;96243.00;;;;5133920;28;20200;-62
2023/09/02 02:20:44;;;;;;;0.60;0.60;;;;;13.50;96236.00;;;;5133810;28;20201;-62
2023/09/02 02:23:12;;;;;;;0.93;0.93;;;;;13.40;96238.00;;;;5133880;28;20211;-62
2023/09/02 02:25:39;;;;;;;0.87;0.87;;;;;13.40;96244.00;;;;5133731;28;20182;-62
2023/09/02 02:28:07;;;;;;;0.47;0.47;;;;;13.40;96245.00;;;;5133865;28;20197;-62
2023/09/02 02:30:35;;;;;;;0.60;0.60;;;;;13.40;96247.00;;;;5133747;28;20197;-63
2023/09/02 02:33:04;;;;;;;0.77;0.77;;;;;13.50;96247.00;;;;5134176;28;20554;-63
2023/09/02 02:35:32;;;;;;;0.70;0.70;;;;;13.50;96244.00;;;;5134036;27;20217;-63
2023/09/02 02:38:00;;;;;;;0.63;0.63;;;;;13.60;96246.00;;;;5137543;27;20300;-63
2023/09/02 02:40:27;;;;;;;0.60;0.60;;;;;13.50;96250.00;;;;5137824;27;20193;-62
2023/09/02 02:42:55;;;;;;;0.87;0.87;;;;;13.50;96246.00;;;;5137473;27;20254;-62
2023/09/02 02:45:22;;;;;;;2.93;1.10;;;;;13.40;96243.00;;;;5137497;27;20668;-62
2023/09/02 02:47:50;;;;;;;0.50;0.50;;;;;13.50;96245.00;;;;5137315;27;20692;-62
2023/09/02 02:50:18;;;;;;;0.60;0.60;;;;;13.40;96247.00;;;;5137948;27;20251;-62
2023/09/02 02:52:46;;;;;;;0.70;0.70;;;;;13.40;96245.00;;;;5137723;27;20556;-62
2023/09/02 02:55:13;;;;;;;0.60;0.60;;;;;13.40;96236.00;;;;5137398;27;20213;-62
2023/09/02 02:57:41;;;;;;;0.80;0.80;;;;;13.40;96240.00;;;;5137223;27;20274;-62
2023/09/02 03:00:09;;;;;;;0.90;0.90;;;;;13.40;96238.00;;;;5137292;27;20268;-62
2023/09/02 03:02:37;;;;;;;0.60;0.60;;;;;13.40;96239.00;;;;5137438;27;20193;-62
2023/09/02 03:05:04;;;;;;;0.60;0.60;;;;;13.40;96236.00;;;;5137196;27;20205;-62
2023/09/02 03:07:33;;;;;;;0.97;0.97;;;;;13.50;96243.00;;;;5135767;27;20225;-62
2023/09/02 03:10:00;;;;;;;0.50;0.50;;;;;13.50;96253.00;;;;5137019;27;20190;-63
2023/09/02 03:12:28;;;;;;;0.73;0.73;;;;;13.30;96254.00;;;;5137403;27;20259;-62
2023/09/02 03:14:56;;;;;;;0.70;0.70;;;;;13.30;96249.00;;;;5137229;27;20216;-62
2023/09/02 03:17:23;;;;;;;0.63;0.63;;;;;13.20;96252.00;;;;5137098;27;20282;-64
2023/09/02 03:19:53;;;;;;;0.63;0.63;;;;;13.30;96248.00;;;;5137355;27;20215;-63
2023/09/02 03:22:21;;;;;;;1.43;1.33;;;;;13.20;96244.00;;;;5136747;27;20202;-62
2023/09/02 03:24:54;;;;;;;0.70;0.70;;;;;13.20;96249.00;;;;5136786;27;20541;-62
2023/09/02 03:27:21;;;;;;;0.60;0.60;;;;;13.30;96244.00;;;;5135262;27;20680;-62
2023/09/02 03:29:49;;;;;;;0.70;0.70;;;;;13.30;96254.00;;;;5135284;27;20201;-62
2023/09/02 03:32:16;;;;;;;0.97;0.97;;;;;13.20;96249.00;;;;5136717;27;20197;-62
2023/09/02 03:34:44;;;;;;;0.90;0.90;;;;;13.10;96252.00;;;;5136531;27;20321;-63
2023/09/02 03:37:11;;;;;;;0.50;0.50;;;;;13.10;96254.00;;;;5136485;27;20205;-63
2023/09/02 03:39:39;;;;;;;0.60;0.60;;;;;13.10;96260.00;;;;5136800;27;20200;-62
2023/09/02 03:42:08;;;;;;;0.50;0.50;;;;;13.00;96251.00;;;;5136725;27;20268;-62
2023/09/02 03:44:35;;;;;;;0.50;0.50;;;;;13.10;96254.00;;;;5136590;27;20208;-62
2023/09/02 03:47:03;;;;;;;0.50;0.50;;;;;13.20;96252.00;;;;5136216;27;20216;-62
2023/09/02 03:49:30;;;;;;;0.70;0.70;;;;;13.10;96255.00;;;;5136484;27;20552;-62
2023/09/02 03:51:57;;;;;;;0.50;0.50;;;;;12.80;96257.00;;;;5136213;27;20196;-63
2023/09/02 03:54:25;;;;;;;0.50;0.50;;;;;12.70;96253.00;;;;5136155;27;20209;-63
2023/09/02 03:56:52;;;;;;;0.60;0.60;;;;;12.80;96253.00;;;;5136117;27;20217;-63
2023/09/02 03:59:21;;;;;;;0.80;0.80;;;;;12.90;96250.00;;;;5136068;27;20656;-63
2023/09/02 04:01:48;;;;;;;3.00;1.00;;;;;12.60;96254.00;;;;5136230;27;20196;-62
2023/09/02 04:04:15;;;;;;;0.50;0.50;;;;;12.60;96253.00;;;;5135986;27;20201;-62
2023/09/02 04:06:43;;;;;;;0.50;0.50;;;;;12.60;96252.00;;;;5136303;27;20208;-62
2023/09/02 04:09:11;;;;;;;0.70;0.70;;;;;12.50;96251.00;;;;5136293;27;20238;-61
2023/09/02 04:11:39;;;;;;;0.97;0.93;;;;;12.60;96254.00;;;;5135892;27;20247;-61
2023/09/02 04:14:06;;;;;;;0.60;0.60;;;;;12.60;96251.00;;;;5135559;27;20568;-61
2023/09/02 04:16:35;;;;;;;0.97;0.97;;;;;12.70;96254.00;;;;5135814;27;20229;-61
2023/09/02 04:19:04;;;;;;;0.77;0.77;;;;;12.80;96256.00;;;;5135642;27;20215;-61
2023/09/02 04:21:31;;;;;;;0.60;0.60;;;;;12.80;96258.00;;;;5135424;27;20190;-62
2023/09/02 04:23:58;;;;;;;1.27;1.17;;;;;12.70;96244.00;;;;5135554;27;20198;-63
2023/09/02 04:26:26;;;;;;;0.53;0.53;;;;;12.60;96253.00;;;;5135530;27;20201;-61
2023/09/02 04:28:55;;;;;;;0.60;0.60;;;;;12.60;96253.00;;;;5135439;27;20197;-61
2023/09/02 04:31:23;;;;;;;0.90;0.90;;;;;12.60;96252.00;;;;5135362;27;20217;-62
2023/09/02 04:33:52;;;;;;;0.60;0.60;;;;;12.60;96261.00;;;;5135589;27;20196;-62
2023/09/02 04:36:19;;;;;;;0.60;0.60;;;;;12.50;96260.00;;;;5135221;27;20228;-61
2023/09/02 04:38:46;;;;;;;0.60;0.60;;;;;12.40;96252.00;;;;5135297;27;20189;-62
2023/09/02 04:41:15;;;;;;;1.10;1.10;;;;;12.50;96252.00;;;;5135530;27;20200;-62
2023/09/02 04:43:43;;;;;;;0.60;0.60;;;;;12.40;96254.00;;;;5135470;27;20190;-62
2023/09/02 04:46:10;;;;;;;0.50;0.50;;;;;12.50;96263.00;;;;5135119;27;20210;-62
2023/09/02 04:48:38;;;;;;;0.60;0.60;;;;;12.50;96270.00;;;;5135044;27;20189;-62
2023/09/02 04:51:07;;;;;;;0.80;0.80;;;;;12.50;96262.00;;;;5133811;27;20197;-62
2023/09/02 04:53:36;;;;;;;0.50;0.50;;;;;12.60;96263.00;;;;5135463;27;20189;-62
2023/09/02 04:56:06;;;;;;;0.70;0.70;;;;;12.60;96264.00;;;;5134744;27;20221;-62
2023/09/02 04:58:33;;;;;;;0.50;0.50;;;;;12.60;96274.00;;;;5134227;27;20661;-62
2023/09/02 05:01:08;;;;;;;0.60;0.60;;;;;12.60;96269.00;;;;5134903;27;20197;-62
2023/09/02 05:03:36;;;;;;;0.70;0.70;;;;;12.70;96265.00;;;;5135316;27;20185;-62
2023/09/02 05:06:05;;;;;;;0.53;0.53;;;;;12.80;96273.00;;;;5134757;27;20232;-62
2023/09/02 05:08:34;;;;;;;0.50;0.50;;;;;12.80;96270.00;;;;5134760;27;20186;-62
2023/09/02 05:11:03;;;;;;;1.03;0.90;;;;;12.80;96268.00;;;;5134629;27;20189;-62
2023/09/02 05:13:30;;;;;;;0.60;0.60;;;;;12.80;96275.00;;;;5134733;27;20239;-62
2023/09/02 05:15:58;;;;;;;0.67;0.67;;;;;12.90;96283.00;;;;5134508;27;20301;-62
2023/09/02 05:18:25;;;;;;;1.27;1.27;;;;;12.80;96271.00;;;;5134519;27;20189;-62
2023/09/02 05:20:56;;;;;;;0.50;0.50;;;;;12.80;96282.00;;;;5134564;27;20687;-62
2023/09/02 05:23:23;;;;;;;0.53;0.53;;;;;12.80;96277.00;;;;5134799;27;20182;-62
2023/09/02 05:25:56;;;;;;;0.57;0.57;;;;;12.80;96289.00;;;;5134288;27;20185;-62
2023/09/02 05:28:24;;;;;;;0.80;0.80;;;;;12.80;96290.00;;;;5134484;27;20230;-62
2023/09/02 05:30:51;;;;;;;0.83;0.83;;;;;12.90;96286.00;;;;5134428;27;20189;-62
2023/09/02 05:33:19;;;;;;;0.60;0.60;;;;;13.00;96290.00;;;;5134745;27;20547;-62
2023/09/02 05:35:46;;;;;;;0.50;0.50;;;;;13.10;96286.00;;;;5134282;27;20209;-62
2023/09/02 05:38:13;;;;;;;0.90;0.90;;;;;13.20;96295.00;;;;5134840;27;20196;-63
2023/09/02 05:40:42;;;;;;;0.60;0.60;;;;;13.20;96291.00;;;;5134181;27;20193;-62
2023/09/02 05:43:10;;;;;;;1.00;0.90;;;;;13.20;96300.00;;;;5134165;27;20314;-62
2023/09/02 05:45:38;;;;;;;0.50;0.50;;;;;13.20;96302.00;;;;5132865;27;20562;-62
2023/09/02 05:48:07;;;;;;;0.50;0.50;;;;;13.10;96311.00;;;;5134097;27;20209;-62
2023/09/02 05:50:35;;;;;;;0.60;0.60;;;;;13.10;96308.00;;;;5132811;27;20201;-62
2023/09/02 05:53:02;;;;;;;2.70;1.03;;;;;13.20;96312.00;;;;5134113;27;20190;-62
2023/09/02 05:55:31;;;;;;;0.50;0.50;;;;;13.30;96310.00;;;;5134380;27;20246;-62
2023/09/02 05:57:58;;;;;;;0.73;0.73;;;;;13.40;96307.00;;;;5134100;27;20570;-62
2023/09/02 06:00:27;;;;;;;0.50;0.50;;;;;13.50;96310.00;;;;5133938;27;20250;-63
2023/09/02 06:02:54;;;;;;;0.67;0.67;;;;;13.60;96315.00;;;;5133945;27;20197;-62
2023/09/02 06:05:22;;;;;;;0.60;0.60;;;;;13.70;96305.00;;;;5134107;28;20664;-62
2023/09/02 06:07:49;;;;;;;0.73;0.73;;;;;13.70;96308.00;;;;5133817;28;20209;-62
2023/09/02 06:10:16;;;;;;;0.50;0.50;;;;;13.80;96312.00;;;;5135010;27;20736;-62
2023/09/02 06:12:44;;;;;;;0.60;0.60;;;;;13.90;96313.00;;;;5138192;27;20281;-62
2023/09/02 06:15:12;;;;;;;0.97;0.87;;;;;13.90;96314.00;;;;5138241;27;20205;-62
2023/09/02 06:17:40;;;;;;;0.60;0.60;;;;;14.10;96310.00;;;;5138194;27;20715;-62
2023/09/02 06:20:09;;;;;;;0.60;0.60;;;;;14.10;96317.00;;;;5138090;27;20201;-62
2023/09/02 06:22:36;;;;;;;0.60;0.60;;;;;14.20;96311.00;;;;5138390;27;20212;-62
2023/09/02 06:25:04;;;;;;;0.60;0.60;;;;;14.30;96316.00;;;;5138186;27;20194;-62
2023/09/02 06:27:32;;;;;;;0.70;0.70;;;;;14.30;96311.00;;;;5138159;27;20213;-62
2023/09/02 06:29:59;;;;;;;1.87;1.10;;;;;14.40;96321.00;;;;5137871;27;20189;-62
2023/09/02 06:32:27;;;;;;;1.30;1.00;;;;;14.50;96325.00;;;;5137990;27;20189;-62
2023/09/02 06:34:55;;;;;;;0.70;0.70;;;;;14.60;96315.00;;;;5137729;27;20688;-62
2023/09/02 06:37:23;;;;;;;0.60;0.60;;;;;14.60;96323.00;;;;5137549;27;20208;-62
2023/09/02 06:39:53;;;;;;;0.60;0.60;;;;;14.70;96317.00;;;;5137847;27;20193;-62
2023/09/02 06:42:21;;;;;;;0.80;0.80;;;;;14.70;96320.00;;;;5136723;27;20209;-63
2023/09/02 06:44:48;;;;;;;0.53;0.53;;;;;14.90;96326.00;;;;5137611;27;20189;-63
2023/09/02 06:47:16;;;;;;;0.60;0.60;;;;;15.00;96326.00;;;;5137728;27;20216;-63
2023/09/02 06:49:43;;;;;;;0.77;0.77;;;;;15.10;96322.00;;;;5137493;27;20193;-63
2023/09/02 06:52:12;;;;;;;0.80;0.80;;;;;15.20;96319.00;;;;5137686;27;20197;-63
2023/09/02 06:54:39;;;;;;;0.60;0.60;;;;;15.30;96316.00;;;;5136112;27;20193;-63
2023/09/02 06:57:06;;;;;;;0.60;0.60;;;;;15.40;96329.00;;;;5137602;27;20582;-62
2023/09/02 06:59:35;;;;;;;0.90;0.90;;;;;15.40;96328.00;;;;5137599;27;20209;-62
2023/09/02 07:02:02;;;;;;;0.70;0.70;;;;;15.60;96327.00;;;;5137239;27;20189;-62
2023/09/02 07:04:30;;;;;;;0.50;0.50;;;;;15.80;96331.00;;;;5137034;27;20247;-62
2023/09/02 07:06:57;;;;;;;0.80;0.80;;;;;15.90;96333.00;;;;5137128;27;20209;-62
2023/09/02 07:09:26;;;;;;;0.60;0.60;;;;;16.00;96333.00;;;;5137040;27;20193;-62
2023/09/02 07:11:55;;;;;;;0.50;0.50;;;;;16.10;96336.00;;;;5137095;27;20276;-62
2023/09/02 07:14:22;;;;;;;0.80;0.80;;;;;16.30;96333.00;;;;5137352;27;20263;-62
2023/09/02 07:16:51;;;;;;;0.87;0.70;;;;;16.40;96335.00;;;;5135451;27;20217;-62
2023/09/02 07:19:18;;;;;;;1.17;1.00;;;;;16.60;96346.00;;;;5137115;27;20205;-62
2023/09/02 07:21:45;;;;;;;0.57;0.57;;;;;16.70;96346.00;;;;5136333;27;20194;-63
2023/09/02 07:24:13;;;;;;;0.60;0.60;;;;;16.80;96342.00;;;;5137367;27;20279;-63
2023/09/02 07:26:42;;;;;;;0.50;0.50;;;;;17.00;96348.00;;;;5137154;27;20216;-63
2023/09/02 07:29:10;;;;;;;0.50;0.50;;;;;17.20;96344.00;;;;5137073;27;20541;-63
2023/09/02 07:31:37;;;;;;;0.50;0.50;;;;;17.30;96345.00;;;;5136806;27;20293;-62
2023/09/02 07:34:04;;;;;;;0.43;0.43;;;;;17.50;96353.00;;;;5136751;27;20695;-62
2023/09/02 07:36:32;;;;;;;0.63;0.63;;;;;17.60;96353.00;;;;5136507;27;20217;-63
2023/09/02 07:38:59;;;;;;;1.23;1.13;;;;;17.60;96342.00;;;;5136612;27;20243;-63
2023/09/02 07:41:26;;;;;;;0.40;0.40;;;;;17.70;96355.00;;;;5135297;27;20200;-63
2023/09/02 07:43:55;;;;;;;0.80;0.80;;;;;18.00;96355.00;;;;5136488;27;20191;-62
2023/09/02 07:46:23;;;;;;;0.70;0.70;;;;;18.20;96356.00;;;;5136805;27;20213;-62
2023/09/02 07:48:51;;;;;;;0.57;0.57;;;;;18.20;96353.00;;;;5136380;27;20641;-62
2023/09/02 07:51:19;;;;;;;0.50;0.50;;;;;18.30;96353.00;;;;5136459;27;20185;-63
2023/09/02 07:53:46;;;;;;;4.10;0.90;;;;;18.40;96355.00;;;;5136358;27;20190;-63
2023/09/02 07:56:14;;;;;;;0.60;0.60;;;;;18.40;96356.00;;;;5136075;27;20240;-63
2023/09/02 07:58:43;;;;;;;0.70;0.70;;;;;18.40;96355.00;;;;5136384;27;20244;-62
2023/09/02 08:01:12;;;;;;;0.70;0.70;;;;;18.50;96349.00;;;;5136130;27;20716;-62
2023/09/02 08:03:39;;;;;;;0.70;0.70;;;;;18.50;96362.00;;;;5137146;27;20193;-63
2023/09/02 08:06:07;;;;;;;0.60;0.60;;;;;18.40;96363.00;;;;5136070;27;20270;-63
2023/09/02 08:08:34;;;;;;;0.60;0.60;;;;;18.50;96359.00;;;;5136001;27;20193;-62
2023/09/02 08:11:03;;;;;;;1.07;1.07;;;;;18.70;96364.00;;;;5136177;27;20190;-63
2023/09/02 08:13:30;;;;;;;0.63;0.63;;;;;18.80;96359.00;;;;5136021;27;20268;-62
2023/09/02 08:15:58;;;;;;;0.50;0.50;;;;;18.90;96369.00;;;;5135648;27;20228;-62
2023/09/02 08:18:26;;;;;;;0.50;0.50;;;;;19.10;96361.00;;;;5136056;27;20193;-62
2023/09/02 08:20:54;;;;;;;1.27;1.23;;;;;19.20;96364.00;;;;5135713;27;20204;-62
2023/09/02 08:23:21;;;;;;;0.53;0.53;;;;;19.30;96364.00;;;;5135589;27;20185;-62
2023/09/02 08:25:49;;;;;;;0.87;0.87;;;;;19.40;96364.00;;;;5135509;27;20185;-62
2023/09/02 08:28:16;;;;;;;0.90;0.90;;;;;19.50;96360.00;;;;5135483;27;20190;-62
2023/09/02 08:30:44;;;;;;;0.80;0.80;;;;;19.60;96364.00;;;;5135489;27;20189;-62
2023/09/02 08:33:12;;;;;;;1.00;1.00;;;;;19.80;96358.00;;;;5135075;27;20189;-63
2023/09/02 08:35:40;;;;;;;2.53;0.73;;;;;19.90;96363.00;;;;5135052;27;20197;-63
2023/09/02 08:38:08;;;;;;;1.17;1.10;;;;;20.10;96360.00;;;;5134164;27;20252;-63
2023/09/02 08:40:35;;;;;;;0.83;0.80;;;;;20.00;96361.00;;;;5135605;27;20193;-63
2023/09/02 08:43:03;;;;;;;0.60;0.60;;;;;20.00;96363.00;;;;5135876;27;20687;-62
2023/09/02 08:45:32;;;;;;;0.80;0.80;;;;;20.30;96366.00;;;;5137398;27;20206;-62
2023/09/02 08:48:01;;;;;;;0.83;0.83;;;;;20.50;96367.00;;;;5135232;27;20209;-62
2023/09/02 08:50:30;;;;;;;0.50;0.50;;;;;20.50;96368.00;;;;5135462;27;20190;-62
2023/09/02 08:52:59;;;;;;;0.77;0.70;;;;;20.60;96369.00;;;;5135452;27;20224;-62
2023/09/02 08:55:28;;;;;;;0.57;0.57;;;;;20.90;96377.00;;;;5135220;27;20208;-62
2023/09/02 08:57:56;;;;;;;0.50;0.50;;;;;20.80;96370.00;;;;5134887;27;20641;-62
2023/09/02 09:00:24;;;;;;;0.90;0.90;;;;;20.80;96379.00;;;;5134816;27;20193;-62
2023/09/02 09:02:53;;;;;;;12.40;0.90;;;;;21.00;96388.00;;;;5135094;27;20551;-61
2023/09/02 09:05:22;;;;;;;0.53;0.53;;;;;21.00;96385.00;;;;5134751;27;20204;-61
2023/09/02 09:07:50;;;;;;;0.67;0.63;;;;;21.20;96379.00;;;;5134546;27;20214;-60
2023/09/02 09:10:21;;;;;;;0.67;0.67;;;;;21.30;96381.00;;;;5135369;27;20197;-60
2023/09/02 09:12:51;;;;;;;0.60;0.60;;;;;21.30;96386.00;;;;5135224;27;20182;-60
2023/09/02 09:15:19;;;;;;;0.63;0.63;;;;;21.20;96387.00;;;;5134747;27;20223;-60
2023/09/02 09:17:47;;;;;;;0.40;0.40;;;;;21.50;96390.00;;;;5134646;27;20225;-60
2023/09/02 09:20:15;;;;;;;0.50;0.50;;;;;21.40;96399.00;;;;5134521;27;20193;-60
2023/09/02 09:22:43;;;;;;;0.70;0.70;;;;;21.40;96394.00;;;;5134555;27;20247;-61
2023/09/02 09:25:12;;;;;;;0.60;0.60;;;;;21.50;96389.00;;;;5134559;27;20197;-61
2023/09/02 09:27:40;;;;;;;0.85;0.85;;;;;21.50;96394.00;;;;5134420;27;20213;-60
2023/09/02 09:30:28;;;;;;;1.13;1.02;;;;;21.60;96395.00;;;;5134587;27;20201;-60
2023/09/02 09:33:00;;;;;;;0.50;0.50;;;;;21.90;96392.00;;;;5134771;27;20259;-61
2023/09/02 09:35:27;;;;;;;0.40;0.40;;;;;22.00;96383.00;;;;5134814;27;20170;-60
2023/09/02 09:37:56;;;;;;;2.03;0.90;;;;;22.30;96384.00;;;;5134609;27;20289;-61
2023/09/02 09:40:31;;;;;;;0.50;0.50;;;;;22.30;96386.00;;;;5134914;27;20262;-61
2023/09/02 09:43:00;;;;;;;0.40;0.40;;;;;22.40;96389.00;;;;5134974;27;20213;-61
2023/09/02 09:45:28;;;;;;;0.70;0.70;;;;;22.40;96389.00;;;;5134387;27;20200;-62
2023/09/02 09:47:59;;;;;;;0.50;0.50;;;;;22.70;96389.00;;;;5133227;27;20209;-60
2023/09/02 09:50:29;;;;;;;1.17;0.90;;;;;22.60;96383.00;;;;5133237;27;20234;-60
2023/09/02 09:53:01;;;;;;;1.35;1.30;;;;;22.70;96386.00;;;;5134932;27;20186;-60
2023/09/02 09:55:30;;;;;;;1.23;1.17;;;;;22.90;96386.00;;;;5134531;27;20242;-60
2023/09/02 09:58:00;;;;;;;0.50;0.50;;;;;23.10;96388.00;;;;5134149;27;20225;-60
2023/09/02 10:00:29;;;;;;;0.60;0.60;;;;;23.20;96390.00;;;;5134221;27;20246;-60
2023/09/02 10:02:59;;;;;;;0.65;0.65;;;;;23.30;96389.00;;;;5134390;27;20652;-60
2023/09/02 10:05:29;;;;;;;0.80;0.80;;;;;23.60;96390.00;;;;5134110;27;20208;-61
2023/09/02 10:08:02;;;;;;;0.60;0.60;;;;;23.60;96388.00;;;;5134270;27;20324;-60
2023/09/02 10:10:30;;;;;;;1.05;1.05;;;;;24.00;96384.00;;;;5134515;28;20640;-60
2023/09/02 10:12:59;;;;;;;0.77;0.77;;;;;24.00;96385.00;;;;5132904;28;20201;-60
2023/09/02 10:15:27;;;;;;;0.43;0.43;;;;;24.20;96381.00;;;;5134734;28;20198;-60
2023/09/02 10:17:57;;;;;;;0.45;0.45;;;;;24.10;96385.00;;;;5134047;28;20578;-60
2023/09/02 10:20:27;;;;;;;1.58;0.80;;;;;24.20;96383.00;;;;5134093;28;20186;-62
2023/09/02 10:22:55;;;;;;;0.63;0.63;;;;;24.30;96381.00;;;;5133983;28;20281;-60
2023/09/02 10:25:27;;;;;;;0.45;0.45;;;;;24.40;96378.00;;;;5134320;28;20217;-62
2023/09/02 10:28:06;;;;;;;0.80;0.80;;;;;24.80;96370.00;;;;5132516;28;20386;-60
2023/09/02 10:30:42;;;;;;;0.73;0.73;;;;;24.70;96369.00;;;;5134711;28;20174;-61
2023/09/02 10:33:15;;;;;;;0.50;0.50;;;;;24.80;96373.00;;;;5134001;28;20189;-60
2023/09/02 10:35:47;;;;;;;0.50;0.50;;;;;25.10;96364.00;;;;5133892;28;20177;-62
2023/09/02 10:38:20;;;;;;;1.00;0.77;;;;;25.20;96373.00;;;;5134299;28;20194;-61
2023/09/02 10:40:56;;;;;;;0.70;0.70;;;;;25.30;96370.00;;;;5133733;28;20260;-62
2023/09/02 10:43:26;;;;;;;0.50;0.50;;;;;25.60;96369.00;;;;5134161;28;20632;-61
2023/09/02 10:45:54;;;;;;;0.70;0.70;;;;;25.60;96368.00;;;;5133611;28;20676;-61
2023/09/02 10:48:21;;;;;;;0.50;0.50;;;;;25.50;96367.00;;;;5133407;28;20196;-60
2023/09/02 10:50:49;;;;;;;0.70;0.70;;;;;25.80;96371.00;;;;5134030;28;20198;-60
2023/09/02 10:53:17;;;;;;;1.13;0.85;;;;;26.10;96367.00;;;;5134062;28;20247;-60
2023/09/02 10:56:08;;;;;;;0.43;0.43;;;;;26.10;96364.00;;;;5133418;28;20190;-61
2023/09/02 10:58:52;;;;;;;0.55;0.55;;;;;26.50;96363.00;;;;5116698;27;20237;-60
2023/09/02 11:01:19;;;;;;;0.60;0.60;;;;;26.50;96375.00;;;;5133518;27;20207;-60
2023/09/02 11:03:48;;;;;;;0.50;0.50;;;;;26.50;96367.00;;;;5137497;27;20530;-60
2023/09/02 11:06:16;;;;;;;0.73;0.73;;;;;26.80;96367.00;;;;5137133;27;20217;-60
2023/09/02 11:08:46;;;;;;;0.65;0.65;;;;;27.00;96362.00;;;;5137653;27;20336;-60
2023/09/02 11:11:14;;;;;;;0.55;0.55;;;;;26.90;96378.00;;;;5137664;27;20280;-60
2023/09/02 11:14:21;;;;;;;0.60;0.60;;;;;26.90;96382.00;;;;5137194;27;20193;-60
2023/09/02 11:17:21;;;;;;;0.55;0.55;;;;;26.40;96369.00;;;;5137273;27;20205;-60
2023/09/02 11:20:02;;;;;;;0.40;0.40;;;;;26.30;96368.00;;;;5137665;27;20182;-60
2023/09/02 11:22:55;;;;;;;0.55;0.55;;;;;26.30;96349.00;;;;5137483;27;20193;-61
2023/09/02 11:25:30;;;;;;;1.95;1.02;;;;;26.80;96352.00;;;;5133405;27;20614;-61
2023/09/02 11:27:59;;;;;;;0.50;0.50;;;;;27.10;96357.00;;;;5137288;27;20212;-62
2023/09/02 11:30:30;;;;;;;2.55;2.33;;;;;27.60;96348.00;;;;5136914;27;20194;-60
2023/09/02 11:32:57;;;;;;;0.70;0.70;;;;;28.10;96358.00;;;;5137179;27;20561;-60
2023/09/02 11:35:26;;;;;;;1.33;1.27;;;;;28.30;96367.00;;;;5136715;27;20527;-60
2023/09/02 11:37:54;;;;;;;0.75;0.75;;;;;27.90;96360.00;;;;5136472;27;20244;-60
2023/09/02 11:40:24;;;;;;;0.93;0.93;;;;;28.00;96366.00;;;;5136438;27;20185;-60
2023/09/02 11:42:53;;;;;;;1.02;1.02;;;;;28.40;96366.00;;;;5135335;27;20284;-61
2023/09/02 11:45:21;;;;;;;0.60;0.60;;;;;28.50;96376.00;;;;5136596;27;20193;-60
2023/09/02 11:47:52;;;;;;;0.57;0.57;;;;;28.70;96374.00;;;;5136701;27;20209;-60
2023/09/02 11:50:21;;;;;;;0.65;0.65;;;;;28.10;96398.00;;;;5136578;27;20184;-60
2023/09/02 11:52:49;;;;;;;0.82;0.82;;;;;28.30;96397.00;;;;5135174;27;20201;-61
2023/09/02 11:55:17;;;;;;;0.60;0.60;;;;;28.60;96379.00;;;;5136204;27;20197;-61
2023/09/02 11:57:46;;;;;;;0.75;0.75;;;;;28.40;96381.00;;;;5136085;27;20229;-61
2023/09/02 12:00:17;;;;;;;0.80;0.80;;;;;28.90;96390.00;;;;5136301;27;20202;-60
2023/09/02 12:02:44;;;;;;;0.60;0.60;;;;;28.90;96397.00;;;;5136151;27;20205;-60
2023/09/02 12:05:14;;;;;;;0.93;0.93;;;;;29.20;96386.00;;;;5136245;27;20578;-62
2023/09/02 12:07:43;;;;;;;0.82;0.82;;;;;29.30;96394.00;;;;5136028;27;20637;-60
2023/09/02 12:10:13;;;;;;;0.55;0.55;;;;;29.60;96387.00;;;;5135946;27;20191;-60
2023/09/02 12:12:44;;;;;;;0.60;0.60;;;;;29.60;96388.00;;;;5134410;27;20197;-60
2023/09/02 12:15:13;;;;;;;0.47;0.47;;;;;29.80;96387.00;;;;5135920;27;20201;-60
2023/09/02 12:17:41;;;;;;;0.60;0.60;;;;;30.00;96397.00;;;;5136236;27;20614;-60
2023/09/02 12:20:11;;;;;;;0.82;0.82;;;;;30.10;96389.00;;;;5135909;27;20193;-60
2023/09/02 12:22:41;;;;;;;0.70;0.70;;;;;29.60;96417.00;;;;5136224;27;20216;-60
2023/09/02 12:25:13;;;;;;;0.60;0.60;;;;;29.30;96416.00;;;;5136187;27;20254;-60
2023/09/02 12:27:40;;;;;;;0.77;0.77;;;;;29.10;96427.00;;;;5135460;27;20753;-60